sensor_id;sensor_type;location;lat;lon;timestamp;pressure;altitude;pressure_sealevel;temperature;humidity
44144;BME280;43510;51.920;4.492;2022-12-08T00:01:46;66585.75;;;6.52;100.00
44144;BME280;43510;51.920;4.492;2022-12-08T00:04:11;66587.22;;;6.51;100.00
44144;BME280;43510;51.920;4.492;2022-12-08T00:06:40;66593.53;;;6.59;100.00
44144;BME280;43510;51.920;4.492;2022-12-08T00:09:44;66607.97;;;6.72;100.00
44144;BME280;43510;51.920;4.492;2022-12-08T00:12:12;66602.44;;;6.67;100.00
44144;BME280;43510;51.920;4.492;2022-12-08T00:14:45;66598.72;;;6.66;100.00
44144;BME280;43510;51.920;4.492;2022-12-08T00:17:13;66607.59;;;6.74;100.00
44144;BME280;43510;51.920;4.492;2022-12-08T00:19:40;66610.38;;;6.77;100.00
44144;BME280;43510;51.920;4.492;2022-12-08T00:22:08;66622.06;;;6.87;100.00
44144;BME280;43510;51.920;4.492;2022-12-08T00:24:36;66630.94;;;6.95;100.00
44144;BME280;43510;51.920;4.492;2022-12-08T00:27:09;66638.94;;;6.98;100.00
44144;BME280;43510;51.920;4.492;2022-12-08T00:29:36;66645.59;;;7.04;100.00
44144;BME280;43510;51.920;4.492;2022-12-08T00:32:02;66641.72;;;7.01;100.00
44144;BME280;43510;51.920;4.492;2022-12-08T00:34:29;66630.94;;;6.95;100.00
44144;BME280;43510;51.920;4.492;2022-12-08T00:36:55;66629.84;;;6.94;100.00
44144;BME280;43510;51.920;4.492;2022-12-08T00:39:20;66625.41;;;6.90;100.00
44144;BME280;43510;51.920;4.492;2022-12-08T00:41:46;66622.59;;;6.88;100.00
44144;BME280;43510;51.920;4.492;2022-12-08T00:44:30;66623.72;;;6.89;100.00
44144;BME280;43510;51.920;4.492;2022-12-08T00:46:57;66628.56;;;6.91;100.00
44144;BME280;43510;51.920;4.492;2022-12-08T00:49:22;66628.72;;;6.93;100.00
44144;BME280;43510;51.920;4.492;2022-12-08T00:51:48;66630.94;;;6.95;100.00
44144;BME280;43510;51.920;4.492;2022-12-08T00:54:15;66633.16;;;6.97;100.00
44144;BME280;43510;51.920;4.492;2022-12-08T00:56:41;66629.28;;;6.94;100.00
44144;BME280;43510;51.920;4.492;2022-12-08T00:59:06;66641.16;;;7.00;100.00
44144;BME280;43510;51.920;4.492;2022-12-08T01:01:33;66645.03;;;7.04;100.00
44144;BME280;43510;51.920;4.492;2022-12-08T01:04:06;66648.56;;;7.09;100.00
44144;BME280;43510;51.920;4.492;2022-12-08T01:06:35;66640.56;;;7.07;100.00
44144;BME280;43510;51.920;4.492;2022-12-08T01:09:03;66645.94;;;7.09;100.00
44144;BME280;43510;51.920;4.492;2022-12-08T01:11:28;66640.03;;;7.06;100.00
44144;BME280;43510;51.920;4.492;2022-12-08T01:13:54;66642.06;;;7.06;100.00
44144;BME280;43510;51.920;4.492;2022-12-08T01:16:22;66645.78;;;7.07;100.00
44144;BME280;43510;51.920;4.492;2022-12-08T01:18:50;66652.28;;;7.10;100.00
44144;BME280;43510;51.920;4.492;2022-12-08T01:21:16;66649.66;;;7.10;100.00
44144;BME280;43510;51.920;4.492;2022-12-08T01:23:41;66648.75;;;7.12;100.00
44144;BME280;43510;51.920;4.492;2022-12-08T01:26:09;66656.91;;;7.17;100.00
44144;BME280;43510;51.920;4.492;2022-12-08T01:28:35;66643.19;;;7.07;100.00
44144;BME280;43510;51.920;4.492;2022-12-08T01:31:01;66648.03;;;7.09;100.00
44144;BME280;43510;51.920;4.492;2022-12-08T01:33:27;66638.19;;;7.02;100.00
44144;BME280;43510;51.920;4.492;2022-12-08T01:35:53;66643.56;;;7.05;100.00
44144;BME280;43510;51.920;4.492;2022-12-08T01:38:20;66644.66;;;7.06;100.00
44144;BME280;43510;51.920;4.492;2022-12-08T01:40:47;66633.16;;;6.97;100.00
44144;BME280;43510;51.920;4.492;2022-12-08T01:43:17;66633.16;;;6.97;100.00
44144;BME280;43510;51.920;4.492;2022-12-08T01:45:42;66637.28;;;6.96;100.00
44144;BME280;43510;51.920;4.492;2022-12-08T01:48:23;66636.88;;;6.98;100.00
44144;BME280;43510;51.920;4.492;2022-12-08T01:50:50;66624.84;;;6.90;100.00
44144;BME280;43510;51.920;4.492;2022-12-08T01:53:29;66629.84;;;6.94;100.00
44144;BME280;43510;51.920;4.492;2022-12-08T01:56:07;66629.28;;;6.94;100.00
44144;BME280;43510;51.920;4.492;2022-12-08T01:58:37;66625.59;;;6.86;100.00
44144;BME280;43510;51.920;4.492;2022-12-08T02:01:04;66624.66;;;6.87;100.00
44144;BME280;43510;51.920;4.492;2022-12-08T02:03:40;66634.28;;;6.98;100.00
44144;BME280;43510;51.920;4.492;2022-12-08T02:06:07;66635.22;;;6.97;100.00
44144;BME280;43510;51.920;4.492;2022-12-08T02:08:35;66628.72;;;6.93;100.00
44144;BME280;43510;51.920;4.492;2022-12-08T02:11:04;66635.03;;;6.94;100.00
44144;BME280;43510;51.920;4.492;2022-12-08T02:13:30;66636.50;;;7.01;100.00
44144;BME280;43510;51.920;4.492;2022-12-08T02:22:05;66644.84;;;7.08;100.00
44144;BME280;43510;51.920;4.492;2022-12-08T02:24:43;66647.06;;;7.10;100.00
44144;BME280;43510;51.920;4.492;2022-12-08T02:30:14;66649.84;;;7.13;100.00
44144;BME280;43510;51.920;4.492;2022-12-08T02:35:58;66656.91;;;7.17;100.00
44144;BME280;43510;51.920;4.492;2022-12-08T02:38:46;66655.41;;;7.18;100.00
44144;BME280;43510;51.920;4.492;2022-12-08T02:41:28;66638.00;;;7.00;100.00
44144;BME280;43510;51.920;4.492;2022-12-08T02:46:34;66643.19;;;7.07;100.00
44144;BME280;43510;51.920;4.492;2022-12-08T02:49:02;66665.97;;;7.27;100.00
44144;BME280;43510;51.920;4.492;2022-12-08T02:51:29;66628.72;;;6.93;100.00
44144;BME280;43510;51.920;4.492;2022-12-08T02:53:59;66627.44;;;6.90;100.00
44144;BME280;43510;51.920;4.492;2022-12-08T02:59:31;66627.44;;;6.90;100.00
44144;BME280;43510;51.920;4.492;2022-12-08T03:08:21;66620.94;;;6.86;100.00
44144;BME280;43510;51.920;4.492;2022-12-08T03:11:00;66619.66;;;6.83;100.00
44144;BME280;43510;51.920;4.492;2022-12-08T03:13:42;66625.97;;;6.91;100.00
44144;BME280;43510;51.920;4.492;2022-12-08T03:16:14;66624.28;;;6.89;100.00
44144;BME280;43510;51.920;4.492;2022-12-08T03:18:48;66632.78;;;7.00;100.00
44144;BME280;43510;51.920;4.492;2022-12-08T03:21:17;66627.59;;;6.92;100.00
44144;BME280;43510;51.920;4.492;2022-12-08T03:23:47;66620.78;;;6.84;100.00
44144;BME280;43510;51.920;4.492;2022-12-08T03:26:55;66633.38;;;6.93;100.00
44144;BME280;43510;51.920;4.492;2022-12-08T03:29:22;66614.09;;;6.78;100.00
44144;BME280;43510;51.920;4.492;2022-12-08T03:31:54;66609.44;;;6.78;100.00
44144;BME280;43510;51.920;4.492;2022-12-08T03:34:22;66620.78;;;6.84;100.00
44144;BME280;43510;51.920;4.492;2022-12-08T03:36:49;66624.88;;;6.83;100.00
44144;BME280;43510;51.920;4.492;2022-12-08T03:39:15;66622.59;;;6.88;100.00
44144;BME280;43510;51.920;4.492;2022-12-08T03:41:40;66624.84;;;6.90;100.00
44144;BME280;43510;51.920;4.492;2022-12-08T03:44:06;66629.66;;;6.92;100.00
44144;BME280;43510;51.920;4.492;2022-12-08T03:46:32;66633.56;;;6.95;100.00
44144;BME280;43510;51.920;4.492;2022-12-08T03:48:57;66635.75;;;6.97;100.00
44144;BME280;43510;51.920;4.492;2022-12-08T03:51:23;66635.22;;;6.97;100.00
44144;BME280;43510;51.920;4.492;2022-12-08T03:53:49;66628.16;;;6.93;100.00
44144;BME280;43510;51.920;4.492;2022-12-08T03:56:24;66617.97;;;6.88;100.00
44144;BME280;43510;51.920;4.492;2022-12-08T03:58:50;66608.34;;;6.77;100.00
44144;BME280;43510;51.920;4.492;2022-12-08T04:01:16;66606.50;;;6.73;100.00
44144;BME280;43510;51.920;4.492;2022-12-08T04:03:42;66610.75;;;6.75;100.00
44144;BME280;43510;51.920;4.492;2022-12-08T04:06:07;66604.28;;;6.71;100.00
44144;BME280;43510;51.920;4.492;2022-12-08T04:08:33;66609.63;;;6.74;100.00
44144;BME280;43510;51.920;4.492;2022-12-08T04:10:59;66602.44;;;6.67;100.00
44144;BME280;43510;51.920;4.492;2022-12-08T04:13:24;66587.97;;;6.54;100.00
44144;BME280;43510;51.920;4.492;2022-12-08T04:15:50;66591.69;;;6.55;100.00
44144;BME280;43510;51.920;4.492;2022-12-08T04:18:16;66584.81;;;6.53;100.00
44144;BME280;43510;51.920;4.492;2022-12-08T04:20:42;66580.34;;;6.49;100.00
44144;BME280;43510;51.920;4.492;2022-12-08T04:23:09;66572.59;;;6.42;100.00
44144;BME280;43510;51.920;4.492;2022-12-08T04:25:35;66573.88;;;6.39;100.00
44144;BME280;43510;51.920;4.492;2022-12-08T04:28:01;66562.56;;;6.33;100.00
44144;BME280;43510;51.920;4.492;2022-12-08T04:30:26;66561.47;;;6.32;100.00
44144;BME280;43510;51.920;4.492;2022-12-08T04:32:52;66554.97;;;6.29;100.00
44144;BME280;43510;51.920;4.492;2022-12-08T04:35:17;66554.22;;;6.26;100.00
44144;BME280;43510;51.920;4.492;2022-12-08T04:37:43;66543.13;;;6.15;100.00
44144;BME280;43510;51.920;4.492;2022-12-08T04:40:10;66546.66;;;6.14;100.00
44144;BME280;43510;51.920;4.492;2022-12-08T04:42:35;66546.84;;;6.17;100.00
44144;BME280;43510;51.920;4.492;2022-12-08T04:45:01;66544.63;;;6.14;100.00
44144;BME280;43510;51.920;4.492;2022-12-08T04:47:27;66536.47;;;6.09;100.00
44144;BME280;43510;51.920;4.492;2022-12-08T04:49:52;66530.91;;;6.04;100.00
44144;BME280;43510;51.920;4.492;2022-12-08T04:52:17;66539.25;;;6.12;100.00
44144;BME280;43510;51.920;4.492;2022-12-08T04:54:43;66545.19;;;6.15;100.00
44144;BME280;43510;51.920;4.492;2022-12-08T04:57:08;66542.41;;;6.12;100.00
44144;BME280;43510;51.920;4.492;2022-12-08T04:59:34;66548.34;;;6.15;100.00
44144;BME280;43510;51.920;4.492;2022-12-08T05:01:59;66536.47;;;6.09;100.00
44144;BME280;43510;51.920;4.492;2022-12-08T05:04:24;66539.06;;;6.09;100.00
44144;BME280;43510;51.920;4.492;2022-12-08T05:06:50;66544.81;;;6.17;100.00
44144;BME280;43510;51.920;4.492;2022-12-08T05:09:15;66547.59;;;6.20;100.00
44144;BME280;43510;51.920;4.492;2022-12-08T05:11:40;66556.84;;;6.26;100.00
44144;BME280;43510;51.920;4.492;2022-12-08T05:14:11;66563.13;;;6.34;100.00
44144;BME280;43510;51.920;4.492;2022-12-08T05:16:36;66570.19;;;6.38;100.00
44144;BME280;43510;51.920;4.492;2022-12-08T05:19:02;66574.63;;;6.42;100.00
44144;BME280;43510;51.920;4.492;2022-12-08T05:21:28;66583.50;;;6.50;100.00
44144;BME280;43510;51.920;4.492;2022-12-08T05:23:53;66594.66;;;6.60;100.00
44144;BME280;43510;51.920;4.492;2022-12-08T05:26:19;66597.97;;;6.63;100.00
44144;BME280;43510;51.920;4.492;2022-12-08T05:28:44;66605.03;;;6.67;100.00
44144;BME280;43510;51.920;4.492;2022-12-08T05:31:11;66613.16;;;6.79;100.00
44144;BME280;43510;51.920;4.492;2022-12-08T05:33:37;66625.78;;;6.88;100.00
44144;BME280;43510;51.920;4.492;2022-12-08T05:36:02;66626.50;;;6.91;100.00
44144;BME280;43510;51.920;4.492;2022-12-08T05:38:29;66628.72;;;6.93;100.00
44144;BME280;43510;51.920;4.492;2022-12-08T05:40:54;66630.94;;;6.95;100.00
44144;BME280;43510;51.920;4.492;2022-12-08T05:43:20;66634.84;;;6.99;100.00
44144;BME280;43510;51.920;4.492;2022-12-08T05:45:45;66641.16;;;7.00;100.00
44144;BME280;43510;51.920;4.492;2022-12-08T05:48:11;66633.56;;;6.95;100.00
44144;BME280;43510;51.920;4.492;2022-12-08T05:50:36;66643.41;;;7.02;100.00
44144;BME280;43510;51.920;4.492;2022-12-08T05:53:01;66639.28;;;7.03;100.00
44144;BME280;43510;51.920;4.492;2022-12-08T05:55:27;66633.53;;;7.03;100.00
44144;BME280;43510;51.920;4.492;2022-12-08T05:57:53;66628.72;;;6.93;100.00
44144;BME280;43510;51.920;4.492;2022-12-08T06:00:19;66626.50;;;6.91;100.00
44144;BME280;43510;51.920;4.492;2022-12-08T06:02:45;66620.94;;;6.86;100.00
44144;BME280;43510;51.920;4.492;2022-12-08T06:05:10;66617.97;;;6.88;100.00
44144;BME280;43510;51.920;4.492;2022-12-08T06:07:36;66613.91;;;6.75;100.00
44144;BME280;43510;51.920;4.492;2022-12-08T06:10:02;66603.53;;;6.68;100.00
44144;BME280;43510;51.920;4.492;2022-12-08T06:12:28;66585.94;;;6.54;100.00
44144;BME280;43510;51.920;4.492;2022-12-08T06:14:55;66572.59;;;6.42;100.00
44144;BME280;43510;51.920;4.492;2022-12-08T06:17:21;66563.69;;;6.34;100.00
44144;BME280;43510;51.920;4.492;2022-12-08T06:19:46;66554.06;;;6.23;100.00
44144;BME280;43510;51.920;4.492;2022-12-08T06:22:11;66548.69;;;6.21;100.00
44144;BME280;43510;51.920;4.492;2022-12-08T06:24:37;66542.41;;;6.12;100.00
44144;BME280;43510;51.920;4.492;2022-12-08T06:27:02;66533.69;;;6.07;100.00
44144;BME280;43510;51.920;4.492;2022-12-08T06:29:27;66527.97;;;5.99;100.00
44144;BME280;43510;51.920;4.492;2022-12-08T06:31:53;66520.91;;;5.95;100.00
44144;BME280;43510;51.920;4.492;2022-12-08T06:34:18;66521.47;;;5.96;100.00
44144;BME280;43510;51.920;4.492;2022-12-08T06:36:44;66517.94;;;5.90;100.00
44144;BME280;43510;51.920;4.492;2022-12-08T06:39:09;66513.84;;;5.84;100.00
44144;BME280;43510;51.920;4.492;2022-12-08T06:41:35;66507.00;;;5.83;100.00
44144;BME280;43510;51.920;4.492;2022-12-08T06:44:20;66509.97;;;5.88;100.00
44144;BME280;43510;51.920;4.492;2022-12-08T06:46:45;66521.47;;;5.96;100.00
44144;BME280;43510;51.920;4.492;2022-12-08T06:49:11;66518.69;;;5.93;100.00
44144;BME280;43510;51.920;4.492;2022-12-08T06:51:36;66524.63;;;5.96;100.00
44144;BME280;43510;51.920;4.492;2022-12-08T06:54:01;66530.56;;;5.99;100.00
44144;BME280;43510;51.920;4.492;2022-12-08T06:56:27;66522.00;;;5.96;100.00
44144;BME280;43510;51.920;4.492;2022-12-08T06:58:54;66533.31;;;6.02;100.00
44144;BME280;43510;51.920;4.492;2022-12-08T07:01:19;66535.75;;;6.06;100.00
44144;BME280;43510;51.920;4.492;2022-12-08T07:03:45;66536.28;;;6.07;100.00
44144;BME280;43510;51.920;4.492;2022-12-08T07:06:19;66541.84;;;6.12;100.00
44144;BME280;43510;51.920;4.492;2022-12-08T07:08:44;66534.25;;;6.07;100.00
44144;BME280;43510;51.920;4.492;2022-12-08T07:11:11;66543.91;;;6.11;100.00
44144;BME280;43510;51.920;4.492;2022-12-08T07:13:36;66540.91;;;6.13;100.00
44144;BME280;43510;51.920;4.492;2022-12-08T07:16:06;66542.19;;;6.17;100.00
44144;BME280;43510;51.920;4.492;2022-12-08T07:18:32;66541.47;;;6.14;100.00
44144;BME280;43510;51.920;4.492;2022-12-08T07:21:07;66555.19;;;6.24;100.00
44144;BME280;43510;51.920;4.492;2022-12-08T07:23:32;66549.25;;;6.21;100.00
44144;BME280;43510;51.920;4.492;2022-12-08T07:26:03;66561.28;;;6.30;100.00
44144;BME280;43510;51.920;4.492;2022-12-08T07:28:30;66559.06;;;6.28;100.00
44144;BME280;43510;51.920;4.492;2022-12-08T07:30:56;66557.56;;;6.29;100.00
44144;BME280;43510;51.920;4.492;2022-12-08T07:33:21;66559.03;;;6.35;100.00
44144;BME280;43510;51.920;4.492;2022-12-08T07:35:56;66570.72;;;6.38;100.00
44144;BME280;43510;51.920;4.492;2022-12-08T07:38:22;66574.06;;;6.41;100.00
44144;BME280;43510;51.920;4.492;2022-12-08T07:40:48;66564.25;;;6.35;100.00
44144;BME280;43510;51.920;4.492;2022-12-08T07:43:13;66568.13;;;6.38;100.00
44144;BME280;43510;51.920;4.492;2022-12-08T07:45:39;66570.56;;;6.36;100.00
44144;BME280;43510;51.920;4.492;2022-12-08T07:48:05;66563.69;;;6.34;100.00
44144;BME280;43510;51.920;4.492;2022-12-08T07:50:32;66563.47;;;6.39;100.00
44144;BME280;43510;51.920;4.492;2022-12-08T07:52:58;66569.81;;;6.40;100.00
44144;BME280;43510;51.920;4.492;2022-12-08T07:55:23;66572.03;;;6.42;100.00
44144;BME280;43510;51.920;4.492;2022-12-08T07:57:49;66569.81;;;6.40;100.00
44144;BME280;43510;51.920;4.492;2022-12-08T08:00:15;66572.03;;;6.42;100.00
44144;BME280;43510;51.920;4.492;2022-12-08T08:02:41;66577.41;;;6.44;100.00
44144;BME280;43510;51.920;4.492;2022-12-08T08:05:07;66569.81;;;6.40;100.00
44144;BME280;43510;51.920;4.492;2022-12-08T08:07:32;66574.63;;;6.42;100.00
44144;BME280;43510;51.920;4.492;2022-12-08T08:09:58;66575.75;;;6.43;100.00
44144;BME280;43510;51.920;4.492;2022-12-08T08:12:23;66582.41;;;6.49;100.00
44144;BME280;43510;51.920;4.492;2022-12-08T08:14:49;66582.59;;;6.51;100.00
44144;BME280;43510;51.920;4.492;2022-12-08T08:17:14;66596.13;;;6.59;100.00
44144;BME280;43510;51.920;4.492;2022-12-08T08:19:39;66596.69;;;6.60;100.00
44144;BME280;43510;51.920;4.492;2022-12-08T08:22:05;66601.69;;;6.64;100.00
44144;BME280;43510;51.920;4.492;2022-12-08T08:24:31;66598.91;;;6.62;100.00
44144;BME280;43510;51.920;4.492;2022-12-08T08:26:57;66598.72;;;6.66;100.00
44144;BME280;43510;51.920;4.492;2022-12-08T08:29:22;66601.88;;;6.67;100.00
44144;BME280;43510;51.920;4.492;2022-12-08T08:31:49;66599.81;;;6.67;100.00
44144;BME280;43510;51.920;4.492;2022-12-08T08:34:14;66615.41;;;6.74;100.00
44144;BME280;43510;51.920;4.492;2022-12-08T08:36:40;66607.97;;;6.72;100.00
44144;BME280;43510;51.920;4.492;2022-12-08T08:39:05;66611.88;;;6.76;100.00
44144;BME280;43510;51.920;4.492;2022-12-08T08:41:31;66611.31;;;6.75;100.00
44144;BME280;43510;51.920;4.492;2022-12-08T08:43:57;66606.50;;;6.73;100.00
44144;BME280;43510;51.920;4.492;2022-12-08T08:46:22;66616.31;;;6.80;100.00
44144;BME280;43510;51.920;4.492;2022-12-08T08:48:47;66621.69;;;6.82;100.00
44144;BME280;43510;51.920;4.492;2022-12-08T08:51:13;66626.88;;;6.89;100.00
44144;BME280;43510;51.920;4.492;2022-12-08T08:53:39;66627.03;;;6.92;100.00
44144;BME280;43510;51.920;4.492;2022-12-08T08:56:13;66624.06;;;6.94;100.00
44144;BME280;43510;51.920;4.492;2022-12-08T08:58:39;66633.56;;;6.95;100.00
44144;BME280;43510;51.920;4.492;2022-12-08T09:01:04;66631.31;;;7.01;100.00
44144;BME280;43510;51.920;4.492;2022-12-08T09:03:30;66640.94;;;7.05;100.00
44144;BME280;43510;51.920;4.492;2022-12-08T09:05:56;66631.13;;;6.98;100.00
44144;BME280;43510;51.920;4.492;2022-12-08T09:08:22;66623.53;;;6.86;100.00
44144;BME280;43510;51.920;4.492;2022-12-08T09:10:48;66616.31;;;6.80;100.00
44144;BME280;43510;51.920;4.492;2022-12-08T09:13:14;66596.84;;;6.62;100.00
44144;BME280;43510;51.920;4.492;2022-12-08T09:15:40;66570.00;;;6.42;100.00
44144;BME280;43510;51.920;4.492;2022-12-08T09:18:06;66554.22;;;6.26;100.00
44144;BME280;43510;51.920;4.492;2022-12-08T09:20:33;66535.34;;;6.08;100.00
44144;BME280;43510;51.920;4.492;2022-12-08T09:22:58;66522.41;;;5.94;100.00
44144;BME280;43510;51.920;4.492;2022-12-08T09:25:24;66516.09;;;5.86;100.00
44144;BME280;43510;51.920;4.492;2022-12-08T09:27:49;66499.78;;;5.76;100.00
44144;BME280;43510;51.920;4.492;2022-12-08T09:30:15;66502.00;;;5.78;100.00
44144;BME280;43510;51.920;4.492;2022-12-08T09:32:40;66489.41;;;5.69;100.00
44144;BME280;43510;51.920;4.492;2022-12-08T09:35:05;66478.47;;;5.61;100.00
44144;BME280;43510;51.920;4.492;2022-12-08T09:37:31;66484.06;;;5.59;100.00
44144;BME280;43510;51.920;4.492;2022-12-08T09:39:56;66473.69;;;5.52;100.00
44144;BME280;43510;51.920;4.492;2022-12-08T09:42:33;66477.41;;;5.53;100.00
44144;BME280;43510;51.920;4.492;2022-12-08T09:45:11;66475.53;;;5.49;100.00
44144;BME280;43510;51.920;4.492;2022-12-08T09:47:51;66469.06;;;5.46;100.00
44144;BME280;43510;51.920;4.492;2022-12-08T09:53:05;66465.00;;;5.40;100.00
44144;BME280;43510;51.920;4.492;2022-12-08T09:55:40;66449.06;;;5.27;100.00
44144;BME280;43510;51.920;4.492;2022-12-08T09:58:18;66449.63;;;5.28;100.00
44144;BME280;43510;51.920;4.492;2022-12-08T10:00:45;66456.84;;;5.34;100.00
44144;BME280;43510;51.920;4.492;2022-12-08T10:03:11;66469.06;;;5.46;100.00
44144;BME280;43510;51.920;4.492;2022-12-08T10:05:41;66467.22;;;5.42;100.00
44144;BME280;43510;51.920;4.492;2022-12-08T10:08:11;66456.84;;;5.42;100.00
44144;BME280;43510;51.920;4.492;2022-12-08T10:10:46;66477.97;;;5.54;100.00
44144;BME280;43510;51.920;4.492;2022-12-08T10:18:33;66499.22;;;5.75;100.00
44144;BME280;43510;51.920;4.492;2022-12-08T10:21:12;66502.00;;;5.78;100.00
44144;BME280;43510;51.920;4.492;2022-12-08T10:23:40;66506.81;;;5.80;100.00
44144;BME280;43510;51.920;4.492;2022-12-08T10:26:12;66519.81;;;5.94;100.00
44144;BME280;43510;51.920;4.492;2022-12-08T10:28:37;66540.00;;;6.08;100.00
44144;BME280;43510;51.920;4.492;2022-12-08T10:31:03;66543.53;;;6.13;100.00
44144;BME280;43510;51.920;4.492;2022-12-08T10:33:31;66552.59;;;6.24;100.00
44144;BME280;43510;51.920;4.492;2022-12-08T10:35:58;66552.19;;;6.26;100.00
44144;BME280;43510;51.920;4.492;2022-12-08T10:38:32;66563.69;;;6.34;100.00
44144;BME280;43510;51.920;4.492;2022-12-08T10:43:46;66595.75;;;6.61;100.00
44144;BME280;43510;51.920;4.492;2022-12-08T10:46:15;66607.25;;;6.69;100.00
44144;BME280;43510;51.920;4.492;2022-12-08T10:51:47;66600.00;;;6.63;100.00
44144;BME280;43510;51.920;4.492;2022-12-08T10:54:33;66593.69;;;6.62;100.00
44144;BME280;43510;51.920;4.492;2022-12-08T10:56:59;66582.78;;;6.47;100.00
44144;BME280;43510;51.920;4.492;2022-12-08T10:59:25;66575.34;;;6.45;100.00
44144;BME280;43510;51.920;4.492;2022-12-08T11:01:52;66570.91;;;6.41;100.00
44144;BME280;43510;51.920;4.492;2022-12-08T11:04:19;66575.00;;;6.40;100.00
44144;BME280;43510;51.920;4.492;2022-12-08T11:06:47;66564.63;;;6.33;100.00
44144;BME280;43510;51.920;4.492;2022-12-08T11:11:55;66547.03;;;6.19;100.00
44144;BME280;43510;51.920;4.492;2022-12-08T11:16:52;66530.19;;;6.01;100.00
44144;BME280;43510;51.920;4.492;2022-12-08T11:19:19;66517.22;;;5.87;100.00
44144;BME280;43510;51.920;4.492;2022-12-08T11:21:46;66516.47;;;5.91;100.00
44144;BME280;43510;51.920;4.492;2022-12-08T11:27:02;66555.19;;;6.24;100.00
44144;BME280;43510;51.920;4.492;2022-12-08T11:29:36;66558.69;;;6.30;100.00
44144;BME280;43510;51.920;4.492;2022-12-08T11:32:12;66565.00;;;6.31;100.00
44144;BME280;43510;51.920;4.492;2022-12-08T11:37:14;66564.81;;;6.35;100.00
44144;BME280;43510;51.920;4.492;2022-12-08T11:39:48;66574.25;;;6.44;100.00
44144;BME280;43510;51.920;4.492;2022-12-08T11:42:23;66587.22;;;6.51;100.00
44144;BME280;43510;51.920;4.492;2022-12-08T11:44:56;66595.94;;;6.64;100.00
44144;BME280;43510;51.920;4.492;2022-12-08T11:47:46;66625.41;;;6.83;100.00
44144;BME280;43510;51.920;4.492;2022-12-08T11:50:21;66624.84;;;6.90;100.00
44144;BME280;43510;51.920;4.492;2022-12-08T11:52:51;66619.28;;;6.85;100.00
44144;BME280;43510;51.920;4.492;2022-12-08T11:57:48;66620.94;;;6.86;100.00
44144;BME280;43510;51.920;4.492;2022-12-08T12:00:16;66626.16;;;6.86;100.00
44144;BME280;43510;51.920;4.492;2022-12-08T12:02:50;66629.50;;;6.89;100.00
44144;BME280;43510;51.920;4.492;2022-12-08T12:05:54;66607.59;;;6.74;100.00
44144;BME280;43510;51.920;4.492;2022-12-08T12:19:57;66495.16;;;5.69;100.00
44144;BME280;43510;51.920;4.492;2022-12-08T12:22:25;66500.16;;;5.74;100.00
44144;BME280;43510;51.920;4.492;2022-12-08T12:24:55;66503.84;;;5.82;100.00
44144;BME280;43510;51.920;4.492;2022-12-08T12:27:36;66508.31;;;5.79;100.00
44144;BME280;43510;51.920;4.492;2022-12-08T12:30:12;66517.94;;;5.90;100.00
44144;BME280;43510;51.920;4.492;2022-12-08T12:32:50;66514.81;;;5.90;100.00
44144;BME280;43510;51.920;4.492;2022-12-08T12:35:34;66527.97;;;5.99;100.00
44144;BME280;43510;51.920;4.492;2022-12-08T12:38:12;66534.06;;;6.05;100.00
44144;BME280;43510;51.920;4.492;2022-12-08T12:41:02;66528.13;;;6.02;100.00
44144;BME280;43510;51.920;4.492;2022-12-08T12:43:32;66520.72;;;5.93;100.00
44144;BME280;43510;51.920;4.492;2022-12-08T12:48:45;66515.34;;;5.90;100.00
44144;BME280;43510;51.920;4.492;2022-12-08T12:54:25;66521.84;;;5.94;100.00
44144;BME280;43510;51.920;4.492;2022-12-08T13:00:05;66503.09;;;5.79;100.00
44144;BME280;43510;51.920;4.492;2022-12-08T13:05:24;66494.03;;;5.75;100.00
44144;BME280;43510;51.920;4.492;2022-12-08T13:08:02;66499.03;;;5.73;100.00
44144;BME280;43510;51.920;4.492;2022-12-08T13:10:37;66504.59;;;5.78;100.00
44144;BME280;43510;51.920;4.492;2022-12-08T13:13:15;66518.69;;;5.93;100.00
44144;BME280;43510;51.920;4.492;2022-12-08T13:18:23;66589.63;;;6.55;100.00
44144;BME280;43510;51.920;4.492;2022-12-08T13:21:19;66630.41;;;6.95;100.00
44144;BME280;43510;51.920;4.492;2022-12-08T13:23:49;66632.06;;;6.96;100.00
44144;BME280;43510;51.920;4.492;2022-12-08T13:31:57;66653.19;;;7.16;100.00
44144;BME280;43510;51.920;4.492;2022-12-08T13:34:43;66640.59;;;7.00;100.00
44144;BME280;43510;51.920;4.492;2022-12-08T13:39:42;66586.84;;;6.53;100.00
44144;BME280;43510;51.920;4.492;2022-12-08T13:44:39;66557.56;;;6.29;100.00
44144;BME280;43510;51.920;4.492;2022-12-08T13:47:10;66537.56;;;6.10;100.00
44144;BME280;43510;51.920;4.492;2022-12-08T13:49:43;66527.19;;;6.03;100.00
44144;BME280;43510;51.920;4.492;2022-12-08T13:52:20;66517.56;;;5.92;100.00
44144;BME280;43510;51.920;4.492;2022-12-08T13:54:51;66503.09;;;5.79;100.00
44144;BME280;43510;51.920;4.492;2022-12-08T13:57:28;66511.09;;;5.82;100.00
44144;BME280;43510;51.920;4.492;2022-12-08T13:59:59;66490.16;;;5.65;100.00
44144;BME280;43510;51.920;4.492;2022-12-08T14:02:35;66482.22;;;5.55;100.00
44144;BME280;43510;51.920;4.492;2022-12-08T14:05:02;66471.28;;;5.48;100.00
44144;BME280;43510;51.920;4.492;2022-12-08T14:07:28;66470.56;;;5.45;100.00
44144;BME280;43510;51.920;4.492;2022-12-08T14:09:53;66477.78;;;5.51;100.00
44144;BME280;43510;51.920;4.492;2022-12-08T14:12:22;66476.63;;;5.57;100.00
44144;BME280;43510;51.920;4.492;2022-12-08T14:15:01;66491.28;;;5.66;100.00
44144;BME280;43510;51.920;4.492;2022-12-08T14:17:27;66494.25;;;5.71;100.00
44144;BME280;43510;51.920;4.492;2022-12-08T14:19:58;66500.91;;;5.77;100.00
44144;BME280;43510;51.920;4.492;2022-12-08T14:22:34;66507.56;;;5.83;100.00
44144;BME280;43510;51.920;4.492;2022-12-08T14:25:00;66505.34;;;5.81;100.00
44144;BME280;43510;51.920;4.492;2022-12-08T14:27:26;66503.09;;;5.79;100.00
44144;BME280;43510;51.920;4.492;2022-12-08T14:30:00;66495.34;;;5.72;100.00
44144;BME280;43510;51.920;4.492;2022-12-08T14:37:41;66466.47;;;5.46;100.00
44144;BME280;43510;51.920;4.492;2022-12-08T14:40:32;66490.53;;;5.63;100.00
44144;BME280;43510;51.920;4.492;2022-12-08T14:43:12;66475.16;;;5.51;100.00